sensor_id;sensor_type;location;lat;lon;timestamp;temperature;humidity
74364;DHT22;62797;49.740;10.154;2023-07-08T00:00:47;17.80;25.90
74364;DHT22;62797;49.740;10.154;2023-07-08T00:03:14;17.70;26.20
74364;DHT22;62797;49.740;10.154;2023-07-08T00:05:40;17.70;26.20
74364;DHT22;62797;49.740;10.154;2023-07-08T00:08:17;17.60;26.40
74364;DHT22;62797;49.740;10.154;2023-07-08T00:10:44;17.60;26.70
74364;DHT22;62797;49.740;10.154;2023-07-08T00:13:10;17.50;26.70
74364;DHT22;62797;49.740;10.154;2023-07-08T00:15:38;17.50;26.80
74364;DHT22;62797;49.740;10.154;2023-07-08T00:18:14;17.40;26.90
74364;DHT22;62797;49.740;10.154;2023-07-08T00:20:50;17.40;26.90
74364;DHT22;62797;49.740;10.154;2023-07-08T00:23:16;17.40;26.90
74364;DHT22;62797;49.740;10.154;2023-07-08T00:25:42;17.50;27.20
74364;DHT22;62797;49.740;10.154;2023-07-08T00:28:16;17.50;26.60
74364;DHT22;62797;49.740;10.154;2023-07-08T00:30:43;17.50;26.80
74364;DHT22;62797;49.740;10.154;2023-07-08T00:33:09;17.40;27.00
74364;DHT22;62797;49.740;10.154;2023-07-08T00:35:40;17.40;27.20
74364;DHT22;62797;49.740;10.154;2023-07-08T00:38:26;17.40;27.10
74364;DHT22;62797;49.740;10.154;2023-07-08T00:43:34;17.40;27.30
74364;DHT22;62797;49.740;10.154;2023-07-08T00:46:25;17.40;27.30
74364;DHT22;62797;49.740;10.154;2023-07-08T00:51:34;17.40;27.40
74364;DHT22;62797;49.740;10.154;2023-07-08T00:54:01;17.30;27.50
74364;DHT22;62797;49.740;10.154;2023-07-08T00:56:31;17.30;27.60
74364;DHT22;62797;49.740;10.154;2023-07-08T00:59:09;17.30;27.90
74364;DHT22;62797;49.740;10.154;2023-07-08T01:01:39;17.20;28.30
74364;DHT22;62797;49.740;10.154;2023-07-08T01:06:53;17.20;27.80
74364;DHT22;62797;49.740;10.154;2023-07-08T01:09:29;17.20;28.00
74364;DHT22;62797;49.740;10.154;2023-07-08T01:11:58;17.20;28.00
74364;DHT22;62797;49.740;10.154;2023-07-08T01:14:30;17.20;28.20
74364;DHT22;62797;49.740;10.154;2023-07-08T01:16:57;17.20;28.20
74364;DHT22;62797;49.740;10.154;2023-07-08T01:19:23;17.10;28.40
74364;DHT22;62797;49.740;10.154;2023-07-08T01:22:01;17.00;28.50
74364;DHT22;62797;49.740;10.154;2023-07-08T01:24:28;17.00;28.70
74364;DHT22;62797;49.740;10.154;2023-07-08T01:26:56;17.00;29.00
74364;DHT22;62797;49.740;10.154;2023-07-08T01:29:22;16.90;29.30
74364;DHT22;62797;49.740;10.154;2023-07-08T01:31:48;16.90;29.60
74364;DHT22;62797;49.740;10.154;2023-07-08T01:34:18;16.80;30.00
74364;DHT22;62797;49.740;10.154;2023-07-08T01:36:50;16.70;30.00
74364;DHT22;62797;49.740;10.154;2023-07-08T01:39:19;16.60;30.30
74364;DHT22;62797;49.740;10.154;2023-07-08T01:41:46;16.60;30.20
74364;DHT22;62797;49.740;10.154;2023-07-08T01:47:02;16.70;30.00
74364;DHT22;62797;49.740;10.154;2023-07-08T01:49:31;16.70;30.00
74364;DHT22;62797;49.740;10.154;2023-07-08T01:51:59;16.70;30.20
74364;DHT22;62797;49.740;10.154;2023-07-08T01:54:25;16.70;29.90
74364;DHT22;62797;49.740;10.154;2023-07-08T01:56:58;16.70;29.90
74364;DHT22;62797;49.740;10.154;2023-07-08T01:59:24;16.70;30.20
74364;DHT22;62797;49.740;10.154;2023-07-08T02:01:51;16.70;30.10
74364;DHT22;62797;49.740;10.154;2023-07-08T02:04:21;16.70;30.00
74364;DHT22;62797;49.740;10.154;2023-07-08T02:06:52;16.80;29.60
74364;DHT22;62797;49.740;10.154;2023-07-08T02:09:18;16.80;29.60
74364;DHT22;62797;49.740;10.154;2023-07-08T02:11:43;16.70;29.90
74364;DHT22;62797;49.740;10.154;2023-07-08T02:14:09;16.80;30.00
74364;DHT22;62797;49.740;10.154;2023-07-08T02:16:35;16.70;30.20
74364;DHT22;62797;49.740;10.154;2023-07-08T02:19:00;16.60;30.40
74364;DHT22;62797;49.740;10.154;2023-07-08T02:21:26;16.70;30.20
74364;DHT22;62797;49.740;10.154;2023-07-08T02:23:57;16.70;30.80
74364;DHT22;62797;49.740;10.154;2023-07-08T02:26:23;16.60;30.80
74364;DHT22;62797;49.740;10.154;2023-07-08T02:28:49;16.50;30.30
74364;DHT22;62797;49.740;10.154;2023-07-08T02:31:15;16.50;30.50
74364;DHT22;62797;49.740;10.154;2023-07-08T02:33:41;16.50;30.30
74364;DHT22;62797;49.740;10.154;2023-07-08T02:36:06;16.50;31.10
74364;DHT22;62797;49.740;10.154;2023-07-08T02:38:32;16.50;31.10
74364;DHT22;62797;49.740;10.154;2023-07-08T02:41:00;16.40;30.60
74364;DHT22;62797;49.740;10.154;2023-07-08T02:43:26;16.40;30.80
74364;DHT22;62797;49.740;10.154;2023-07-08T02:45:52;16.30;30.90
74364;DHT22;62797;49.740;10.154;2023-07-08T02:48:19;16.20;31.70
74364;DHT22;62797;49.740;10.154;2023-07-08T02:50:45;16.20;31.30
74364;DHT22;62797;49.740;10.154;2023-07-08T02:53:12;16.20;31.50
74364;DHT22;62797;49.740;10.154;2023-07-08T02:55:39;16.10;31.80
74364;DHT22;62797;49.740;10.154;2023-07-08T02:58:05;16.00;32.10
74364;DHT22;62797;49.740;10.154;2023-07-08T03:00:31;16.00;32.10
74364;DHT22;62797;49.740;10.154;2023-07-08T03:02:57;16.00;32.00
74364;DHT22;62797;49.740;10.154;2023-07-08T03:05:23;15.90;32.60
74364;DHT22;62797;49.740;10.154;2023-07-08T03:07:49;16.00;32.00
74364;DHT22;62797;49.740;10.154;2023-07-08T03:10:15;15.90;33.20
74364;DHT22;62797;49.740;10.154;2023-07-08T03:12:42;15.90;33.30
74364;DHT22;62797;49.740;10.154;2023-07-08T03:15:09;15.80;33.60
74364;DHT22;62797;49.740;10.154;2023-07-08T03:17:35;15.90;33.40
74364;DHT22;62797;49.740;10.154;2023-07-08T03:20:00;15.90;32.90
74364;DHT22;62797;49.740;10.154;2023-07-08T03:22:26;15.80;32.70
74364;DHT22;62797;49.740;10.154;2023-07-08T03:24:52;15.80;32.90
74364;DHT22;62797;49.740;10.154;2023-07-08T03:27:20;15.80;33.10
74364;DHT22;62797;49.740;10.154;2023-07-08T03:29:49;15.70;33.20
74364;DHT22;62797;49.740;10.154;2023-07-08T03:32:14;15.70;33.80
74364;DHT22;62797;49.740;10.154;2023-07-08T03:34:41;15.60;33.80
74364;DHT22;62797;49.740;10.154;2023-07-08T03:37:08;15.60;33.50
74364;DHT22;62797;49.740;10.154;2023-07-08T03:39:34;15.60;34.30
74364;DHT22;62797;49.740;10.154;2023-07-08T03:42:00;15.60;33.90
74364;DHT22;62797;49.740;10.154;2023-07-08T03:44:27;15.60;34.20
74364;DHT22;62797;49.740;10.154;2023-07-08T03:46:53;15.60;34.20
74364;DHT22;62797;49.740;10.154;2023-07-08T03:49:21;15.50;34.80
74364;DHT22;62797;49.740;10.154;2023-07-08T03:51:51;15.50;34.80
74364;DHT22;62797;49.740;10.154;2023-07-08T03:54:19;15.40;35.20
74364;DHT22;62797;49.740;10.154;2023-07-08T03:56:46;15.40;34.90
74364;DHT22;62797;49.740;10.154;2023-07-08T03:59:12;15.50;35.00
74364;DHT22;62797;49.740;10.154;2023-07-08T04:01:39;15.50;34.90
74364;DHT22;62797;49.740;10.154;2023-07-08T04:04:12;15.40;35.90
74364;DHT22;62797;49.740;10.154;2023-07-08T04:06:38;15.40;35.20
74364;DHT22;62797;49.740;10.154;2023-07-08T04:09:05;15.40;35.20
74364;DHT22;62797;49.740;10.154;2023-07-08T04:11:32;15.40;35.60
74364;DHT22;62797;49.740;10.154;2023-07-08T04:13:58;15.40;35.00
74364;DHT22;62797;49.740;10.154;2023-07-08T04:19:15;15.50;35.40
74364;DHT22;62797;49.740;10.154;2023-07-08T04:21:42;15.50;35.60
74364;DHT22;62797;49.740;10.154;2023-07-08T04:24:10;15.40;35.10
74364;DHT22;62797;49.740;10.154;2023-07-08T04:26:37;15.50;35.30
74364;DHT22;62797;49.740;10.154;2023-07-08T04:29:10;15.60;34.30
74364;DHT22;62797;49.740;10.154;2023-07-08T04:31:36;15.60;34.60
74364;DHT22;62797;49.740;10.154;2023-07-08T04:34:02;15.60;34.70
74364;DHT22;62797;49.740;10.154;2023-07-08T04:36:28;15.60;35.30
74364;DHT22;62797;49.740;10.154;2023-07-08T04:38:55;15.70;35.20
74364;DHT22;62797;49.740;10.154;2023-07-08T04:41:23;15.70;34.80
74364;DHT22;62797;49.740;10.154;2023-07-08T04:43:51;15.80;34.10
74364;DHT22;62797;49.740;10.154;2023-07-08T04:46:29;15.90;34.20
74364;DHT22;62797;49.740;10.154;2023-07-08T04:49:01;16.00;33.90
74364;DHT22;62797;49.740;10.154;2023-07-08T04:51:26;16.00;34.20
74364;DHT22;62797;49.740;10.154;2023-07-08T04:53:52;16.00;34.60
74364;DHT22;62797;49.740;10.154;2023-07-08T04:56:18;16.00;34.40
74364;DHT22;62797;49.740;10.154;2023-07-08T04:58:44;16.00;34.90
74364;DHT22;62797;49.740;10.154;2023-07-08T05:01:10;16.00;35.60
74364;DHT22;62797;49.740;10.154;2023-07-08T05:03:36;16.10;34.70
74364;DHT22;62797;49.740;10.154;2023-07-08T05:06:02;16.20;34.70
74364;DHT22;62797;49.740;10.154;2023-07-08T05:08:28;16.30;34.70
74364;DHT22;62797;49.740;10.154;2023-07-08T05:10:53;16.40;34.70
74364;DHT22;62797;49.740;10.154;2023-07-08T05:13:19;16.40;34.60
74364;DHT22;62797;49.740;10.154;2023-07-08T05:15:48;16.50;34.00
74364;DHT22;62797;49.740;10.154;2023-07-08T05:18:14;16.50;34.10
74364;DHT22;62797;49.740;10.154;2023-07-08T05:20:39;16.60;33.90
74364;DHT22;62797;49.740;10.154;2023-07-08T05:23:05;16.70;33.70
74364;DHT22;62797;49.740;10.154;2023-07-08T05:25:32;16.80;34.10
74364;DHT22;62797;49.740;10.154;2023-07-08T05:27:58;16.90;34.50
74364;DHT22;62797;49.740;10.154;2023-07-08T05:30:25;17.00;34.50
74364;DHT22;62797;49.740;10.154;2023-07-08T05:32:51;17.10;34.80
74364;DHT22;62797;49.740;10.154;2023-07-08T05:35:16;17.20;34.20
74364;DHT22;62797;49.740;10.154;2023-07-08T05:37:42;17.30;33.90
74364;DHT22;62797;49.740;10.154;2023-07-08T05:40:12;17.40;33.80
74364;DHT22;62797;49.740;10.154;2023-07-08T05:42:39;17.40;33.50
74364;DHT22;62797;49.740;10.154;2023-07-08T05:45:05;17.60;33.00
74364;DHT22;62797;49.740;10.154;2023-07-08T05:47:37;17.70;32.30
74364;DHT22;62797;49.740;10.154;2023-07-08T05:50:03;17.90;31.30
74364;DHT22;62797;49.740;10.154;2023-07-08T05:52:29;18.10;31.80
74364;DHT22;62797;49.740;10.154;2023-07-08T05:54:55;18.20;29.00
74364;DHT22;62797;49.740;10.154;2023-07-08T05:57:21;18.40;30.80
74364;DHT22;62797;49.740;10.154;2023-07-08T05:59:48;18.50;29.70
74364;DHT22;62797;49.740;10.154;2023-07-08T06:02:17;18.50;30.70
74364;DHT22;62797;49.740;10.154;2023-07-08T06:04:44;18.60;28.90
74364;DHT22;62797;49.740;10.154;2023-07-08T06:07:10;18.80;28.10
74364;DHT22;62797;49.740;10.154;2023-07-08T06:09:35;18.90;28.80
74364;DHT22;62797;49.740;10.154;2023-07-08T06:12:01;19.10;28.90
74364;DHT22;62797;49.740;10.154;2023-07-08T06:14:28;19.20;29.80
74364;DHT22;62797;49.740;10.154;2023-07-08T06:16:54;19.30;27.90
74364;DHT22;62797;49.740;10.154;2023-07-08T06:19:22;19.30;28.60
74364;DHT22;62797;49.740;10.154;2023-07-08T06:21:48;19.50;28.50
74364;DHT22;62797;49.740;10.154;2023-07-08T06:24:14;19.60;27.30
74364;DHT22;62797;49.740;10.154;2023-07-08T06:26:39;19.70;27.70
74364;DHT22;62797;49.740;10.154;2023-07-08T06:29:05;19.80;26.60
74364;DHT22;62797;49.740;10.154;2023-07-08T06:31:31;20.00;26.40
74364;DHT22;62797;49.740;10.154;2023-07-08T06:33:58;20.20;27.00
74364;DHT22;62797;49.740;10.154;2023-07-08T06:36:24;20.30;26.00
74364;DHT22;62797;49.740;10.154;2023-07-08T06:38:50;20.40;25.20
74364;DHT22;62797;49.740;10.154;2023-07-08T06:41:15;20.60;26.00
74364;DHT22;62797;49.740;10.154;2023-07-08T06:43:42;20.70;26.20
74364;DHT22;62797;49.740;10.154;2023-07-08T06:46:16;20.80;26.70
74364;DHT22;62797;49.740;10.154;2023-07-08T06:48:42;21.00;26.70
74364;DHT22;62797;49.740;10.154;2023-07-08T06:51:08;21.10;26.00
74364;DHT22;62797;49.740;10.154;2023-07-08T06:53:36;21.20;24.90
74364;DHT22;62797;49.740;10.154;2023-07-08T06:56:02;21.30;24.40
74364;DHT22;62797;49.740;10.154;2023-07-08T06:58:29;21.50;24.40
74364;DHT22;62797;49.740;10.154;2023-07-08T07:00:55;21.70;23.00
74364;DHT22;62797;49.740;10.154;2023-07-08T07:03:27;21.80;22.50
74364;DHT22;62797;49.740;10.154;2023-07-08T07:05:55;22.00;21.70
74364;DHT22;62797;49.740;10.154;2023-07-08T07:08:21;22.30;20.90
74364;DHT22;62797;49.740;10.154;2023-07-08T07:10:47;22.40;20.70
74364;DHT22;62797;49.740;10.154;2023-07-08T07:13:13;22.50;21.00
74364;DHT22;62797;49.740;10.154;2023-07-08T07:15:38;22.60;20.50
74364;DHT22;62797;49.740;10.154;2023-07-08T07:18:04;22.80;20.40
74364;DHT22;62797;49.740;10.154;2023-07-08T07:20:31;22.90;20.40
74364;DHT22;62797;49.740;10.154;2023-07-08T07:22:56;23.00;19.40
74364;DHT22;62797;49.740;10.154;2023-07-08T07:25:22;23.10;19.00
74364;DHT22;62797;49.740;10.154;2023-07-08T07:27:48;23.30;19.10
74364;DHT22;62797;49.740;10.154;2023-07-08T07:30:14;23.40;18.30
74364;DHT22;62797;49.740;10.154;2023-07-08T07:32:41;23.60;18.30
74364;DHT22;62797;49.740;10.154;2023-07-08T07:35:07;23.70;17.50
74364;DHT22;62797;49.740;10.154;2023-07-08T07:37:33;23.90;17.60
74364;DHT22;62797;49.740;10.154;2023-07-08T07:39:59;24.10;17.60
74364;DHT22;62797;49.740;10.154;2023-07-08T07:42:27;24.20;17.40
74364;DHT22;62797;49.740;10.154;2023-07-08T07:44:53;24.40;16.50
74364;DHT22;62797;49.740;10.154;2023-07-08T07:47:19;24.60;16.90
74364;DHT22;62797;49.740;10.154;2023-07-08T07:49:45;24.80;16.70
74364;DHT22;62797;49.740;10.154;2023-07-08T07:52:12;25.10;16.60
74364;DHT22;62797;49.740;10.154;2023-07-08T07:54:39;25.40;15.50
74364;DHT22;62797;49.740;10.154;2023-07-08T07:57:05;25.60;14.80
74364;DHT22;62797;49.740;10.154;2023-07-08T07:59:31;25.80;14.20
74364;DHT22;62797;49.740;10.154;2023-07-08T08:01:56;25.90;14.60
74364;DHT22;62797;49.740;10.154;2023-07-08T08:04:22;26.20;14.60
74364;DHT22;62797;49.740;10.154;2023-07-08T08:06:48;26.30;14.10
74364;DHT22;62797;49.740;10.154;2023-07-08T08:09:14;26.50;13.80
74364;DHT22;62797;49.740;10.154;2023-07-08T08:11:40;26.60;13.50
74364;DHT22;62797;49.740;10.154;2023-07-08T08:14:06;26.60;13.70
74364;DHT22;62797;49.740;10.154;2023-07-08T08:16:31;26.70;13.50
74364;DHT22;62797;49.740;10.154;2023-07-08T08:18:57;26.70;13.10
74364;DHT22;62797;49.740;10.154;2023-07-08T08:24:05;26.90;12.60
74364;DHT22;62797;49.740;10.154;2023-07-08T08:26:31;27.20;12.70
74364;DHT22;62797;49.740;10.154;2023-07-08T08:28:57;27.30;12.70
74364;DHT22;62797;49.740;10.154;2023-07-08T08:31:26;27.40;12.60
74364;DHT22;62797;49.740;10.154;2023-07-08T08:33:52;27.60;12.10
74364;DHT22;62797;49.740;10.154;2023-07-08T08:36:18;27.70;11.10
74364;DHT22;62797;49.740;10.154;2023-07-08T08:38:44;27.90;11.00
74364;DHT22;62797;49.740;10.154;2023-07-08T08:41:14;28.00;11.10
74364;DHT22;62797;49.740;10.154;2023-07-08T08:43:43;28.10;11.40
74364;DHT22;62797;49.740;10.154;2023-07-08T08:46:39;28.00;10.90
74364;DHT22;62797;49.740;10.154;2023-07-08T08:52:43;27.90;10.40
74364;DHT22;62797;49.740;10.154;2023-07-08T08:55:14;27.80;10.70
74364;DHT22;62797;49.740;10.154;2023-07-08T08:57:46;27.70;10.70
74364;DHT22;62797;49.740;10.154;2023-07-08T09:00:19;27.80;9.90
74364;DHT22;62797;49.740;10.154;2023-07-08T09:02:59;27.80;9.80
74364;DHT22;62797;49.740;10.154;2023-07-08T09:05:27;27.80;10.30
74364;DHT22;62797;49.740;10.154;2023-07-08T09:13:36;28.10;8.70
74364;DHT22;62797;49.740;10.154;2023-07-08T09:19:15;28.30;7.70
74364;DHT22;62797;49.740;10.154;2023-07-08T09:21:57;28.20;7.90
74364;DHT22;62797;49.740;10.154;2023-07-08T09:24:45;28.40;6.70
74364;DHT22;62797;49.740;10.154;2023-07-08T09:27:13;28.50;7.20
74364;DHT22;62797;49.740;10.154;2023-07-08T09:29:39;28.70;6.50
74364;DHT22;62797;49.740;10.154;2023-07-08T09:32:22;28.90;4.80
74364;DHT22;62797;49.740;10.154;2023-07-08T09:34:52;29.10;3.00
74364;DHT22;62797;49.740;10.154;2023-07-08T09:37:30;29.20;4.00
74364;DHT22;62797;49.740;10.154;2023-07-08T09:39:57;29.80;2.80
74364;DHT22;62797;49.740;10.154;2023-07-08T09:42:33;30.50;3.00
74364;DHT22;62797;49.740;10.154;2023-07-08T09:45:02;31.10;2.10
74364;DHT22;62797;49.740;10.154;2023-07-08T09:47:36;31.20;1.10
74364;DHT22;62797;49.740;10.154;2023-07-08T09:50:06;31.10;1.50
74364;DHT22;62797;49.740;10.154;2023-07-08T09:52:41;31.10;1.00
74364;DHT22;62797;49.740;10.154;2023-07-08T09:55:11;30.90;1.30
74364;DHT22;62797;49.740;10.154;2023-07-08T09:57:38;30.70;1.10
74364;DHT22;62797;49.740;10.154;2023-07-08T10:00:13;30.90;1.00
74364;DHT22;62797;49.740;10.154;2023-07-08T10:02:55;31.60;1.00
74364;DHT22;62797;49.740;10.154;2023-07-08T10:05:51;32.20;1.10
74364;DHT22;62797;49.740;10.154;2023-07-08T10:08:20;32.60;1.00
74364;DHT22;62797;49.740;10.154;2023-07-08T10:13:40;32.90;1.00
74364;DHT22;62797;49.740;10.154;2023-07-08T10:16:27;32.90;1.00
74364;DHT22;62797;49.740;10.154;2023-07-08T10:44:29;33.10;1.00
74364;DHT22;62797;49.740;10.154;2023-07-08T10:55:46;33.80;1.00
74364;DHT22;62797;49.740;10.154;2023-07-08T11:01:00;33.90;1.00
74364;DHT22;62797;49.740;10.154;2023-07-08T11:06:45;33.90;1.00
74364;DHT22;62797;49.740;10.154;2023-07-08T11:09:13;33.70;1.00
74364;DHT22;62797;49.740;10.154;2023-07-08T11:11:49;33.60;1.00
74364;DHT22;62797;49.740;10.154;2023-07-08T11:19:37;33.90;1.00
74364;DHT22;62797;49.740;10.154;2023-07-08T11:22:10;33.70;1.00
74364;DHT22;62797;49.740;10.154;2023-07-08T11:24:47;33.60;1.00
74364;DHT22;62797;49.740;10.154;2023-07-08T11:27:23;33.70;1.00
74364;DHT22;62797;49.740;10.154;2023-07-08T11:32:36;33.70;1.00
74364;DHT22;62797;49.740;10.154;2023-07-08T11:35:12;33.90;1.00
74364;DHT22;62797;49.740;10.154;2023-07-08T11:37:40;33.90;1.00
74364;DHT22;62797;49.740;10.154;2023-07-08T11:40:15;33.80;1.00
74364;DHT22;62797;49.740;10.154;2023-07-08T11:45:37;33.90;1.00
74364;DHT22;62797;49.740;10.154;2023-07-08T11:50:49;34.20;1.00
74364;DHT22;62797;49.740;10.154;2023-07-08T11:56:00;34.20;1.00
74364;DHT22;62797;49.740;10.154;2023-07-08T11:58:51;34.20;1.00
74364;DHT22;62797;49.740;10.154;2023-07-08T12:03:51;34.60;1.00
74364;DHT22;62797;49.740;10.154;2023-07-08T12:09:00;35.00;1.00
74364;DHT22;62797;49.740;10.154;2023-07-08T12:11:43;34.80;1.00
74364;DHT22;62797;49.740;10.154;2023-07-08T12:14:10;35.00;1.00
74364;DHT22;62797;49.740;10.154;2023-07-08T12:16:35;35.10;1.00
74364;DHT22;62797;49.740;10.154;2023-07-08T12:19:02;35.20;1.00
74364;DHT22;62797;49.740;10.154;2023-07-08T12:21:30;35.10;1.00
74364;DHT22;62797;49.740;10.154;2023-07-08T12:24:04;35.10;1.00
74364;DHT22;62797;49.740;10.154;2023-07-08T12:26:31;35.10;1.00
74364;DHT22;62797;49.740;10.154;2023-07-08T12:28:57;34.70;1.00
74364;DHT22;62797;49.740;10.154;2023-07-08T12:31:23;34.50;1.00
74364;DHT22;62797;49.740;10.154;2023-07-08T12:33:50;34.60;1.00
74364;DHT22;62797;49.740;10.154;2023-07-08T12:36:28;34.60;1.00
74364;DHT22;62797;49.740;10.154;2023-07-08T12:38:55;34.80;1.00
74364;DHT22;62797;49.740;10.154;2023-07-08T12:41:31;35.10;1.00
74364;DHT22;62797;49.740;10.154;2023-07-08T12:43:57;35.30;1.00
74364;DHT22;62797;49.740;10.154;2023-07-08T12:46:25;35.30;1.00
74364;DHT22;62797;49.740;10.154;2023-07-08T12:48:51;35.50;1.00
74364;DHT22;62797;49.740;10.154;2023-07-08T12:51:23;35.70;1.00
74364;DHT22;62797;49.740;10.154;2023-07-08T12:53:51;35.80;1.00
74364;DHT22;62797;49.740;10.154;2023-07-08T12:56:19;35.60;1.00
74364;DHT22;62797;49.740;10.154;2023-07-08T12:58:51;35.50;1.00
74364;DHT22;62797;49.740;10.154;2023-07-08T13:01:25;35.30;1.00
74364;DHT22;62797;49.740;10.154;2023-07-08T13:03:55;35.00;1.00
74364;DHT22;62797;49.740;10.154;2023-07-08T13:06:25;34.80;1.00
74364;DHT22;62797;49.740;10.154;2023-07-08T13:08:54;34.70;1.00
74364;DHT22;62797;49.740;10.154;2023-07-08T13:11:22;34.90;1.00
74364;DHT22;62797;49.740;10.154;2023-07-08T13:14:03;35.20;1.00
74364;DHT22;62797;49.740;10.154;2023-07-08T13:16:32;35.70;1.00
74364;DHT22;62797;49.740;10.154;2023-07-08T13:18:59;36.10;1.00
74364;DHT22;62797;49.740;10.154;2023-07-08T13:21:25;36.40;1.00
74364;DHT22;62797;49.740;10.154;2023-07-08T13:23:56;36.90;1.00
74364;DHT22;62797;49.740;10.154;2023-07-08T13:26:26;37.20;1.00
74364;DHT22;62797;49.740;10.154;2023-07-08T13:29:13;37.20;1.00
74364;DHT22;62797;49.740;10.154;2023-07-08T13:31:43;37.00;1.00
74364;DHT22;62797;49.740;10.154;2023-07-08T13:34:16;37.10;1.00
74364;DHT22;62797;49.740;10.154;2023-07-08T13:36:44;37.20;1.00
74364;DHT22;62797;49.740;10.154;2023-07-08T13:39:20;37.10;1.00
74364;DHT22;62797;49.740;10.154;2023-07-08T13:41:48;36.80;1.00
74364;DHT22;62797;49.740;10.154;2023-07-08T13:44:16;36.70;1.00
74364;DHT22;62797;49.740;10.154;2023-07-08T13:46:53;36.80;1.00
74364;DHT22;62797;49.740;10.154;2023-07-08T13:49:29;37.00;1.00
74364;DHT22;62797;49.740;10.154;2023-07-08T13:54:52;36.80;1.00
74364;DHT22;62797;49.740;10.154;2023-07-08T13:57:22;36.40;1.00
74364;DHT22;62797;49.740;10.154;2023-07-08T13:59:48;36.50;1.00
74364;DHT22;62797;49.740;10.154;2023-07-08T14:02:25;36.90;1.00
74364;DHT22;62797;49.740;10.154;2023-07-08T14:04:54;37.00;1.00
74364;DHT22;62797;49.740;10.154;2023-07-08T14:07:23;37.30;1.00
74364;DHT22;62797;49.740;10.154;2023-07-08T14:09:49;37.70;1.00
74364;DHT22;62797;49.740;10.154;2023-07-08T14:12:15;37.80;1.00
74364;DHT22;62797;49.740;10.154;2023-07-08T14:14:40;37.90;1.00
74364;DHT22;62797;49.740;10.154;2023-07-08T14:17:11;38.20;1.00
74364;DHT22;62797;49.740;10.154;2023-07-08T14:19:37;38.60;1.00
74364;DHT22;62797;49.740;10.154;2023-07-08T14:22:26;38.90;1.00
74364;DHT22;62797;49.740;10.154;2023-07-08T14:24:53;39.30;1.00
74364;DHT22;62797;49.740;10.154;2023-07-08T14:27:19;39.70;1.00
74364;DHT22;62797;49.740;10.154;2023-07-08T14:29:50;39.80;1.00
74364;DHT22;62797;49.740;10.154;2023-07-08T14:32:19;39.70;1.00
74364;DHT22;62797;49.740;10.154;2023-07-08T14:34:55;39.60;1.00
74364;DHT22;62797;49.740;10.154;2023-07-08T14:37:21;39.70;1.00
74364;DHT22;62797;49.740;10.154;2023-07-08T14:39:48;39.60;1.00
74364;DHT22;62797;49.740;10.154;2023-07-08T14:42:17;39.40;1.00
74364;DHT22;62797;49.740;10.154;2023-07-08T14:44:44;39.30;1.00
74364;DHT22;62797;49.740;10.154;2023-07-08T14:47:12;39.50;1.00
74364;DHT22;62797;49.740;10.154;2023-07-08T14:49:39;39.40;1.00
74364;DHT22;62797;49.740;10.154;2023-07-08T14:52:06;39.10;1.00
74364;DHT22;62797;49.740;10.154;2023-07-08T14:54:32;38.90;1.00
74364;DHT22;62797;49.740;10.154;2023-07-08T14:56:57;38.90;1.00
74364;DHT22;62797;49.740;10.154;2023-07-08T14:59:26;39.20;1.00
74364;DHT22;62797;49.740;10.154;2023-07-08T15:01:54;39.20;1.00
74364;DHT22;62797;49.740;10.154;2023-07-08T15:04:21;38.90;1.00
74364;DHT22;62797;49.740;10.154;2023-07-08T15:06:48;38.60;1.00
74364;DHT22;62797;49.740;10.154;2023-07-08T15:09:16;38.50;1.00
74364;DHT22;62797;49.740;10.154;2023-07-08T15:11:43;38.70;1.00
74364;DHT22;62797;49.740;10.154;2023-07-08T15:14:21;38.70;1.00
74364;DHT22;62797;49.740;10.154;2023-07-08T15:16:49;38.70;1.00
74364;DHT22;62797;49.740;10.154;2023-07-08T15:19:15;38.50;1.00
74364;DHT22;62797;49.740;10.154;2023-07-08T15:21:41;38.40;1.00
74364;DHT22;62797;49.740;10.154;2023-07-08T15:24:09;38.40;1.00
74364;DHT22;62797;49.740;10.154;2023-07-08T15:26:38;38.20;1.00
74364;DHT22;62797;49.740;10.154;2023-07-08T15:29:05;38.20;1.00
74364;DHT22;62797;49.740;10.154;2023-07-08T15:31:34;38.00;1.00
74364;DHT22;62797;49.740;10.154;2023-07-08T15:34:00;37.90;1.00
74364;DHT22;62797;49.740;10.154;2023-07-08T15:36:26;37.80;1.00
74364;DHT22;62797;49.740;10.154;2023-07-08T15:38:51;37.90;1.00
74364;DHT22;62797;49.740;10.154;2023-07-08T15:41:25;37.80;1.00
74364;DHT22;62797;49.740;10.154;2023-07-08T15:43:56;38.30;1.00
74364;DHT22;62797;49.740;10.154;2023-07-08T15:46:24;38.70;1.00
74364;DHT22;62797;49.740;10.154;2023-07-08T15:48:51;39.00;1.00
74364;DHT22;62797;49.740;10.154;2023-07-08T15:51:16;39.10;1.00
74364;DHT22;62797;49.740;10.154;2023-07-08T15:53:44;38.70;1.00
74364;DHT22;62797;49.740;10.154;2023-07-08T15:56:14;38.30;1.00
74364;DHT22;62797;49.740;10.154;2023-07-08T15:58:42;37.90;1.00
74364;DHT22;62797;49.740;10.154;2023-07-08T16:01:12;37.20;1.00
74364;DHT22;62797;49.740;10.154;2023-07-08T16:03:40;36.70;1.00
74364;DHT22;62797;49.740;10.154;2023-07-08T16:06:05;36.20;1.00
74364;DHT22;62797;49.740;10.154;2023-07-08T16:08:31;36.00;1.00
74364;DHT22;62797;49.740;10.154;2023-07-08T16:11:05;35.90;1.00
74364;DHT22;62797;49.740;10.154;2023-07-08T16:13:37;36.20;1.00
74364;DHT22;62797;49.740;10.154;2023-07-08T16:16:03;36.50;1.00
74364;DHT22;62797;49.740;10.154;2023-07-08T16:18:29;36.70;1.00
74364;DHT22;62797;49.740;10.154;2023-07-08T16:20:55;36.50;1.00
74364;DHT22;62797;49.740;10.154;2023-07-08T16:23:21;36.50;1.00
74364;DHT22;62797;49.740;10.154;2023-07-08T16:25:49;36.80;1.00
74364;DHT22;62797;49.740;10.154;2023-07-08T16:28:35;36.90;1.00
74364;DHT22;62797;49.740;10.154;2023-07-08T16:31:13;36.80;1.00
74364;DHT22;62797;49.740;10.154;2023-07-08T16:33:40;36.90;1.00
74364;DHT22;62797;49.740;10.154;2023-07-08T16:36:16;36.80;1.00
74364;DHT22;62797;49.740;10.154;2023-07-08T16:38:45;36.50;1.00
74364;DHT22;62797;49.740;10.154;2023-07-08T16:41:12;36.40;1.00
74364;DHT22;62797;49.740;10.154;2023-07-08T16:43:40;36.20;1.00
74364;DHT22;62797;49.740;10.154;2023-07-08T16:46:09;36.00;1.00
74364;DHT22;62797;49.740;10.154;2023-07-08T16:48:35;36.10;1.00
74364;DHT22;62797;49.740;10.154;2023-07-08T16:51:01;36.20;1.00
74364;DHT22;62797;49.740;10.154;2023-07-08T16:53:27;36.00;1.00
74364;DHT22;62797;49.740;10.154;2023-07-08T16:55:52;35.80;1.00
74364;DHT22;62797;49.740;10.154;2023-07-08T16:58:18;35.70;1.00
74364;DHT22;62797;49.740;10.154;2023-07-08T17:00:45;35.80;1.00
74364;DHT22;62797;49.740;10.154;2023-07-08T17:03:14;35.80;1.00
74364;DHT22;62797;49.740;10.154;2023-07-08T17:05:40;35.80;1.00
74364;DHT22;62797;49.740;10.154;2023-07-08T17:08:15;35.80;1.00